Time;durP1;ratioP1;P1;durP2;ratioP2;P2;SDS_P1;SDS_P2;PMS_P1;PMS_P2;Temp;Humidity;BMP_temperature;BMP_pressure;BME280_temperature;BME280_humidity;BME280_pressure;Samples;Min_cycle;Max_cycle;Signal;HPM_P1;HPM_P2
2023/03/04 00:01:24;;;;;;;44.15;20.33;;;;;;;;;;4996429;28;20040;-86
2023/03/04 00:03:50;;;;;;;48.90;21.00;;;;;;;;;;4995261;28;20034;-86
2023/03/04 00:06:15;;;;;;;47.15;20.80;;;;;;;;;;4977605;28;20136;-86
2023/03/04 00:08:41;;;;;;;46.97;21.98;;;;;;;;;;4993797;28;20034;-85
2023/03/04 00:11:06;;;;;;;52.15;21.45;;;;;;;;;;4993771;28;20026;-86
2023/03/04 00:13:32;;;;;;;50.13;21.70;;;;;;;;;;4993974;28;20104;-86
2023/03/04 00:15:57;;;;;;;50.75;21.70;;;;;;;;;;4993260;28;20174;-85
2023/03/04 00:18:23;;;;;;;51.10;20.85;;;;;;;;;;4993724;28;20030;-84
2023/03/04 00:20:49;;;;;;;45.20;20.55;;;;;;;;;;5004017;28;20041;-84
2023/03/04 00:23:15;;;;;;;52.83;21.83;;;;;;;;;;5002702;28;20045;-87
2023/03/04 00:25:40;;;;;;;45.90;20.63;;;;;;;;;;4978035;28;20034;-86
2023/03/04 00:28:06;;;;;;;43.85;20.33;;;;;;;;;;4995427;28;20050;-85
2023/03/04 00:30:32;;;;;;;44.13;20.08;;;;;;;;;;4978577;28;20410;-84
2023/03/04 00:32:58;;;;;;;47.65;20.33;;;;;;;;;;4978102;28;20113;-86
2023/03/04 00:35:23;;;;;;;48.33;21.45;;;;;;;;;;4978612;28;20463;-84
2023/03/04 00:37:49;;;;;;;49.15;21.52;;;;;;;;;;4978117;28;20610;-86
2023/03/04 00:40:15;;;;;;;44.22;20.33;;;;;;;;;;4995207;28;20529;-86
2023/03/04 00:42:41;;;;;;;46.50;20.17;;;;;;;;;;4977587;28;20450;-86
2023/03/04 00:45:07;;;;;;;48.55;20.30;;;;;;;;;;4993761;28;20450;-85
2023/03/04 00:47:33;;;;;;;45.67;20.85;;;;;;;;;;4993998;28;20033;-87
2023/03/04 00:49:58;;;;;;;42.30;18.10;;;;;;;;;;4993998;28;20041;-85
2023/03/04 00:52:24;;;;;;;40.90;18.65;;;;;;;;;;4994196;28;20102;-85
2023/03/04 00:54:49;;;;;;;40.38;18.27;;;;;;;;;;4995368;28;20104;-88
2023/03/04 00:57:15;;;;;;;51.78;21.10;;;;;;;;;;4977443;28;20049;-86
2023/03/04 00:59:42;;;;;;;51.30;21.10;;;;;;;;;;4997760;23;20086;-82
2023/03/04 01:02:09;;;;;;;50.28;21.77;;;;;;;;;;5022853;28;20033;-81
2023/03/04 01:04:36;;;;;;;53.58;22.17;;;;;;;;;;5021771;28;20066;-82
2023/03/04 01:07:01;;;;;;;50.90;20.73;;;;;;;;;;5004553;28;20033;-82
2023/03/04 01:09:27;;;;;;;55.58;22.13;;;;;;;;;;5005013;28;20030;-82
2023/03/04 01:11:53;;;;;;;49.17;20.42;;;;;;;;;;5021897;28;20037;-82
2023/03/04 01:14:18;;;;;;;44.05;19.92;;;;;;;;;;5037909;28;20542;-82
2023/03/04 01:16:44;;;;;;;42.67;19.67;;;;;;;;;;5021248;28;20042;-83
2023/03/04 01:19:10;;;;;;;47.60;20.33;;;;;;;;;;5021928;28;20042;-82
2023/03/04 01:21:36;;;;;;;48.63;21.13;;;;;;;;;;5019814;28;20034;-82
2023/03/04 01:24:01;;;;;;;41.38;20.05;;;;;;;;;;5020544;28;20038;-81
2023/03/04 01:26:27;;;;;;;47.20;20.20;;;;;;;;;;5019801;28;20034;-81
2023/03/04 01:28:52;;;;;;;42.95;19.83;;;;;;;;;;5022033;28;20093;-81
2023/03/04 01:31:18;;;;;;;46.97;20.08;;;;;;;;;;5020694;28;20034;-82
2023/03/04 01:33:43;;;;;;;42.60;19.33;;;;;;;;;;5024943;28;20045;-80
2023/03/04 01:36:08;;;;;;;40.50;18.83;;;;;;;;;;5024988;28;20026;-81
2023/03/04 01:38:34;;;;;;;39.63;17.70;;;;;;;;;;5024753;28;20038;-82
2023/03/04 01:41:00;;;;;;;39.35;17.63;;;;;;;;;;5025656;28;20040;-82
2023/03/04 01:43:27;;;;;;;42.38;18.88;;;;;;;;;;5025148;28;20045;-83
2023/03/04 01:45:54;;;;;;;36.42;18.13;;;;;;;;;;5041147;28;20053;-81
2023/03/04 01:48:25;;;;;;;39.70;17.75;;;;;;;;;;5024583;28;20141;-82
2023/03/04 01:50:51;;;;;;;38.78;18.00;;;;;;;;;;5025078;28;20124;-82
2023/03/04 01:53:21;;;;;;;38.28;17.45;;;;;;;;;;5025120;28;20062;-82
2023/03/04 01:55:48;;;;;;;35.05;16.67;;;;;;;;;;5024855;28;20117;-81
2023/03/04 01:58:13;;;;;;;36.20;16.63;;;;;;;;;;5025237;28;20061;-82
2023/03/04 02:00:39;;;;;;;33.85;15.82;;;;;;;;;;5024492;28;20034;-82
2023/03/04 02:03:10;;;;;;;30.45;14.65;;;;;;;;;;5025169;28;20026;-82
2023/03/04 02:05:37;;;;;;;33.63;16.33;;;;;;;;;;5008846;28;20117;-81
2023/03/04 02:08:04;;;;;;;35.50;17.00;;;;;;;;;;5040718;28;20033;-82
2023/03/04 02:10:31;;;;;;;33.53;16.55;;;;;;;;;;5025680;28;20060;-83
2023/03/04 02:12:58;;;;;;;35.60;16.63;;;;;;;;;;5023442;28;20076;-83
2023/03/04 02:15:24;;;;;;;33.92;16.17;;;;;;;;;;5023342;28;20041;-81
2023/03/04 02:17:51;;;;;;;33.17;15.52;;;;;;;;;;5023946;28;20045;-81
2023/03/04 02:20:22;;;;;;;34.67;15.27;;;;;;;;;;5007748;28;20034;-81
2023/03/04 02:22:52;;;;;;;33.60;15.63;;;;;;;;;;5024527;28;20212;-82
2023/03/04 02:25:25;;;;;;;36.33;16.83;;;;;;;;;;5024008;28;20052;-82
2023/03/04 02:27:51;;;;;;;37.25;17.15;;;;;;;;;;5023988;28;20030;-82
2023/03/04 02:30:24;;;;;;;40.67;16.80;;;;;;;;;;5025349;28;20052;-81
2023/03/04 02:32:50;;;;;;;39.10;17.20;;;;;;;;;;5022769;28;20679;-81
2023/03/04 02:35:16;;;;;;;37.10;17.10;;;;;;;;;;5017816;28;20057;-82
2023/03/04 02:37:43;;;;;;;37.75;16.58;;;;;;;;;;5022730;28;20060;-81
2023/03/04 02:40:18;;;;;;;41.42;18.45;;;;;;;;;;5022811;28;20057;-81
2023/03/04 02:42:44;;;;;;;38.00;17.98;;;;;;;;;;5024714;28;20128;-82
2023/03/04 02:45:37;;;;;;;36.97;16.25;;;;;;;;;;5024083;28;20048;-81
2023/03/04 02:48:05;;;;;;;36.90;16.80;;;;;;;;;;5023233;28;20076;-82
2023/03/04 02:50:35;;;;;;;36.60;15.98;;;;;;;;;;5023335;28;20060;-81
2023/03/04 02:53:01;;;;;;;36.80;16.58;;;;;;;;;;5024180;28;20088;-82
2023/03/04 02:55:27;;;;;;;35.33;16.70;;;;;;;;;;5022317;28;20037;-82
2023/03/04 02:57:53;;;;;;;36.95;16.52;;;;;;;;;;5023080;28;20040;-83
2023/03/04 03:00:19;;;;;;;41.10;16.92;;;;;;;;;;5022342;28;20034;-83
2023/03/04 03:02:44;;;;;;;35.47;17.00;;;;;;;;;;5022703;28;20073;-83
2023/03/04 03:05:11;;;;;;;33.25;15.90;;;;;;;;;;5021203;28;20036;-82
2023/03/04 03:07:39;;;;;;;37.42;17.52;;;;;;;;;;5022803;28;20414;-81
2023/03/04 03:10:04;;;;;;;34.30;15.70;;;;;;;;;;5022463;28;20129;-81
2023/03/04 03:12:30;;;;;;;36.92;17.23;;;;;;;;;;5022320;28;20022;-82
2023/03/04 03:14:55;;;;;;;35.67;15.93;;;;;;;;;;5022475;28;20030;-82
2023/03/04 03:17:22;;;;;;;36.00;16.15;;;;;;;;;;5022361;28;20033;-82
2023/03/04 03:19:48;;;;;;;37.85;17.00;;;;;;;;;;5022222;28;20038;-82
2023/03/04 03:22:14;;;;;;;37.63;16.70;;;;;;;;;;5022176;28;20034;-82
2023/03/04 03:24:40;;;;;;;30.98;16.00;;;;;;;;;;5020835;28;20034;-81
2023/03/04 03:27:06;;;;;;;33.80;15.43;;;;;;;;;;5023885;28;20101;-81
2023/03/04 03:29:32;;;;;;;42.33;16.45;;;;;;;;;;5021330;28;20037;-82
2023/03/04 03:31:57;;;;;;;36.53;16.42;;;;;;;;;;5022009;28;20045;-82
2023/03/04 03:34:23;;;;;;;33.72;15.68;;;;;;;;;;5022701;28;20057;-82
2023/03/04 03:36:49;;;;;;;35.90;16.20;;;;;;;;;;5021360;28;20034;-81
2023/03/04 03:39:15;;;;;;;33.67;15.77;;;;;;;;;;5004700;28;20394;-82
2023/03/04 03:41:41;;;;;;;34.20;17.05;;;;;;;;;;5021904;28;20046;-81
2023/03/04 03:44:06;;;;;;;30.35;15.23;;;;;;;;;;5022154;28;20077;-81
2023/03/04 03:46:32;;;;;;;33.72;15.60;;;;;;;;;;5022694;28;20238;-82
2023/03/04 03:48:57;;;;;;;32.53;15.13;;;;;;;;;;5021181;28;20038;-81
2023/03/04 03:51:23;;;;;;;30.85;14.85;;;;;;;;;;5020880;28;20029;-82
2023/03/04 03:53:48;;;;;;;30.48;14.95;;;;;;;;;;5021990;28;20457;-83
2023/03/04 03:56:14;;;;;;;27.92;14.35;;;;;;;;;;5020986;28;20053;-82
2023/03/04 03:58:39;;;;;;;29.70;14.02;;;;;;;;;;5021872;28;20470;-81
2023/03/04 04:01:05;;;;;;;31.63;15.05;;;;;;;;;;5021241;28;20606;-81
2023/03/04 04:03:30;;;;;;;29.77;15.35;;;;;;;;;;5022023;28;20041;-81
2023/03/04 04:05:56;;;;;;;32.00;13.90;;;;;;;;;;5020503;28;20034;-82
2023/03/04 04:08:21;;;;;;;30.90;14.15;;;;;;;;;;5021904;28;20080;-82
2023/03/04 04:10:47;;;;;;;25.65;13.63;;;;;;;;;;5037641;28;20033;-81
2023/03/04 04:13:12;;;;;;;29.60;14.77;;;;;;;;;;5020008;28;20495;-81
2023/03/04 04:15:38;;;;;;;30.85;13.70;;;;;;;;;;5020910;28;20044;-81
2023/03/04 04:18:04;;;;;;;25.05;13.43;;;;;;;;;;5036564;28;20041;-82
2023/03/04 04:20:30;;;;;;;28.77;14.43;;;;;;;;;;5020862;28;20500;-81
2023/03/04 04:22:56;;;;;;;29.98;14.98;;;;;;;;;;5021009;28;20089;-82
2023/03/04 04:25:21;;;;;;;30.63;14.50;;;;;;;;;;5021527;28;20045;-82
2023/03/04 04:27:47;;;;;;;33.75;14.95;;;;;;;;;;5020694;28;20038;-79
2023/03/04 04:30:12;;;;;;;27.50;14.18;;;;;;;;;;5020449;28;20033;-82
2023/03/04 04:32:38;;;;;;;27.50;14.15;;;;;;;;;;5021018;28;20045;-82
2023/03/04 04:35:04;;;;;;;26.92;13.63;;;;;;;;;;5036065;28;20037;-82
2023/03/04 04:37:29;;;;;;;28.17;13.80;;;;;;;;;;5021555;28;20033;-81
2023/03/04 04:39:55;;;;;;;30.30;14.88;;;;;;;;;;5021052;28;20505;-81
2023/03/04 04:42:21;;;;;;;31.40;15.32;;;;;;;;;;5021115;28;20041;-81
2023/03/04 04:44:46;;;;;;;29.13;15.32;;;;;;;;;;5023854;28;20026;-81
2023/03/04 04:47:12;;;;;;;32.40;16.60;;;;;;;;;;5021157;28;20068;-80
2023/03/04 04:49:37;;;;;;;35.90;17.42;;;;;;;;;;5004863;28;20053;-79
2023/03/04 04:52:04;;;;;;;35.10;15.73;;;;;;;;;;5004536;28;20038;-79
2023/03/04 04:54:29;;;;;;;30.83;14.35;;;;;;;;;;5005000;28;20061;-79
2023/03/04 04:56:55;;;;;;;31.13;15.90;;;;;;;;;;5003726;28;20053;-80
2023/03/04 04:59:20;;;;;;;32.67;15.82;;;;;;;;;;5003939;28;20038;-80
2023/03/04 05:01:46;;;;;;;31.52;15.93;;;;;;;;;;5004328;28;20046;-80
2023/03/04 05:04:11;;;;;;;33.33;16.40;;;;;;;;;;5004843;28;20042;-80
2023/03/04 05:06:38;;;;;;;28.95;15.02;;;;;;;;;;5004766;28;20062;-80
2023/03/04 05:09:03;;;;;;;34.08;15.63;;;;;;;;;;5005443;28;20046;-80
2023/03/04 05:11:29;;;;;;;32.22;14.82;;;;;;;;;;5005566;28;20509;-80
2023/03/04 05:13:55;;;;;;;30.92;15.52;;;;;;;;;;5005603;28;20034;-81
2023/03/04 05:16:20;;;;;;;30.30;15.38;;;;;;;;;;5005601;28;20057;-83
2023/03/04 05:18:46;;;;;;;32.35;14.52;;;;;;;;;;5001063;28;20076;-81
2023/03/04 05:21:12;;;;;;;30.30;14.95;;;;;;;;;;4999390;28;20042;-82
2023/03/04 05:23:39;;;;;;;30.67;14.80;;;;;;;;;;4999260;28;20034;-82
2023/03/04 05:26:06;;;;;;;30.67;14.63;;;;;;;;;;4998781;28;20038;-81
2023/03/04 05:28:32;;;;;;;31.92;15.15;;;;;;;;;;5000583;28;20084;-82
2023/03/04 05:30:58;;;;;;;28.63;13.60;;;;;;;;;;4999882;28;20125;-82
2023/03/04 05:33:24;;;;;;;30.10;14.48;;;;;;;;;;5000146;28;20042;-82
2023/03/04 05:35:49;;;;;;;33.22;15.25;;;;;;;;;;4999186;28;20057;-82
2023/03/04 05:38:18;;;;;;;29.33;13.85;;;;;;;;;;5001268;28;20069;-82
2023/03/04 05:40:44;;;;;;;30.35;13.80;;;;;;;;;;5000928;28;20122;-82
2023/03/04 05:43:11;;;;;;;28.98;13.63;;;;;;;;;;4999049;28;20038;-82
2023/03/04 05:45:37;;;;;;;27.83;13.10;;;;;;;;;;5015356;28;20053;-82
2023/03/04 05:48:03;;;;;;;29.75;13.55;;;;;;;;;;5000567;28;20046;-82
2023/03/04 05:50:29;;;;;;;28.05;14.35;;;;;;;;;;5001178;28;20132;-81
2023/03/04 05:52:55;;;;;;;32.72;15.45;;;;;;;;;;4999761;28;20483;-81
2023/03/04 05:55:20;;;;;;;34.85;15.48;;;;;;;;;;4999242;28;20038;-81
2023/03/04 05:57:46;;;;;;;32.72;14.52;;;;;;;;;;4999403;28;20034;-80
2023/03/04 06:00:14;;;;;;;39.33;15.85;;;;;;;;;;5003651;28;20115;-81
2023/03/04 06:02:40;;;;;;;31.70;14.20;;;;;;;;;;5004071;28;20038;-80
2023/03/04 06:05:07;;;;;;;35.42;15.23;;;;;;;;;;4998572;28;20037;-79
2023/03/04 06:07:33;;;;;;;34.53;15.02;;;;;;;;;;5003175;28;20030;-79
2023/03/04 06:09:59;;;;;;;31.95;14.38;;;;;;;;;;5003711;28;20129;-81
2023/03/04 06:12:24;;;;;;;30.83;14.85;;;;;;;;;;5002143;28;20125;-80
2023/03/04 06:14:50;;;;;;;32.58;15.10;;;;;;;;;;5002627;28;20019;-79
2023/03/04 06:17:15;;;;;;;33.67;16.88;;;;;;;;;;5006388;28;20069;-80
2023/03/04 06:19:41;;;;;;;34.90;16.48;;;;;;;;;;5006478;28;20042;-80
2023/03/04 06:22:08;;;;;;;35.40;15.65;;;;;;;;;;5007118;28;20069;-80
2023/03/04 06:24:33;;;;;;;33.05;15.85;;;;;;;;;;5004931;28;20065;-79
2023/03/04 06:26:59;;;;;;;36.50;18.13;;;;;;;;;;5005335;28;20038;-80
2023/03/04 06:29:25;;;;;;;43.50;20.05;;;;;;;;;;5005700;28;20149;-80
2023/03/04 06:31:51;;;;;;;38.88;18.90;;;;;;;;;;5017619;28;20040;-79
2023/03/04 06:34:17;;;;;;;41.70;18.33;;;;;;;;;;5007282;28;20111;-81
2023/03/04 06:36:42;;;;;;;49.88;22.40;;;;;;;;;;5006304;28;20525;-79
2023/03/04 06:39:08;;;;;;;49.13;24.10;;;;;;;;;;5006435;28;20050;-82
2023/03/04 06:41:34;;;;;;;36.08;17.10;;;;;;;;;;5004651;28;20050;-80
2023/03/04 06:43:59;;;;;;;28.08;14.75;;;;;;;;;;5004549;28;20072;-81
2023/03/04 06:46:26;;;;;;;33.40;15.55;;;;;;;;;;5004373;28;20034;-79
2023/03/04 06:48:52;;;;;;;33.20;15.13;;;;;;;;;;5003209;28;20038;-80
2023/03/04 06:51:18;;;;;;;34.15;15.27;;;;;;;;;;5004243;28;20384;-82
2023/03/04 06:53:44;;;;;;;32.15;15.43;;;;;;;;;;4998128;28;20097;-81
2023/03/04 06:56:11;;;;;;;32.65;14.98;;;;;;;;;;4997552;28;20097;-80
2023/03/04 06:58:37;;;;;;;34.20;16.15;;;;;;;;;;5000986;28;20446;-81
2023/03/04 07:01:13;;;;;;;34.88;16.30;;;;;;;;;;5024627;23;20525;-81
2023/03/04 07:03:39;;;;;;;34.92;16.25;;;;;;;;;;5016296;28;20050;-84
2023/03/04 07:06:05;;;;;;;37.28;15.30;;;;;;;;;;5016016;28;20537;-84
2023/03/04 07:08:31;;;;;;;34.40;15.52;;;;;;;;;;5017063;28;20030;-86
2023/03/04 07:10:56;;;;;;;34.05;15.82;;;;;;;;;;5016847;28;20057;-83
2023/03/04 07:13:22;;;;;;;36.85;16.83;;;;;;;;;;5018351;28;20491;-84
2023/03/04 07:15:47;;;;;;;36.50;16.33;;;;;;;;;;5016665;28;20096;-83
2023/03/04 07:18:13;;;;;;;35.15;16.88;;;;;;;;;;4999219;28;20506;-85
2023/03/04 07:20:38;;;;;;;36.60;16.42;;;;;;;;;;5016462;28;20096;-85
2023/03/04 07:23:03;;;;;;;41.47;16.45;;;;;;;;;;5016234;28;20099;-84
2023/03/04 07:25:29;;;;;;;34.22;15.77;;;;;;;;;;5016220;28;20105;-84
2023/03/04 07:27:54;;;;;;;36.33;17.02;;;;;;;;;;5014685;28;20049;-85
2023/03/04 07:30:20;;;;;;;33.10;15.68;;;;;;;;;;5016954;28;20064;-84
2023/03/04 07:32:45;;;;;;;29.60;14.77;;;;;;;;;;5015211;28;20379;-83
2023/03/04 07:35:11;;;;;;;31.20;15.07;;;;;;;;;;5016867;28;20054;-82
2023/03/04 07:37:36;;;;;;;39.20;18.23;;;;;;;;;;5016972;28;20041;-86
2023/03/04 07:40:02;;;;;;;37.50;18.30;;;;;;;;;;5015989;28;20145;-84
2023/03/04 07:42:28;;;;;;;28.02;12.73;;;;;;;;;;5017662;28;20049;-82
2023/03/04 07:45:01;;;;;;;35.00;16.00;;;;;;;;;;5016065;28;20033;-86
2023/03/04 07:47:27;;;;;;;40.58;16.88;;;;;;;;;;5018668;28;20042;-86
2023/03/04 07:49:53;;;;;;;39.63;17.30;;;;;;;;;;5018469;28;20026;-88
2023/03/04 07:52:19;;;;;;;39.22;17.75;;;;;;;;;;5018433;28;20046;-88
2023/03/04 07:54:44;;;;;;;39.53;18.17;;;;;;;;;;5019756;28;20563;-85
2023/03/04 07:57:10;;;;;;;36.55;17.88;;;;;;;;;;5023364;28;20120;-88
2023/03/04 07:59:35;;;;;;;40.10;17.70;;;;;;;;;;5013566;28;20033;-88
2023/03/04 08:02:01;;;;;;;41.55;19.50;;;;;;;;;;5013564;28;20120;-87
2023/03/04 08:04:26;;;;;;;43.88;17.52;;;;;;;;;;5013088;28;20095;-86
2023/03/04 08:06:52;;;;;;;35.80;17.17;;;;;;;;;;5014819;28;20573;-86
2023/03/04 08:09:17;;;;;;;35.72;17.10;;;;;;;;;;4997192;28;20034;-86
2023/03/04 08:11:43;;;;;;;35.45;17.75;;;;;;;;;;5017790;28;20040;-87
2023/03/04 08:14:10;;;;;;;38.08;18.55;;;;;;;;;;5017300;28;20038;-85
2023/03/04 08:16:36;;;;;;;37.60;17.42;;;;;;;;;;5015721;28;20036;-85
2023/03/04 08:19:03;;;;;;;40.00;19.70;;;;;;;;;;5016755;28;20042;-88
2023/03/04 08:21:29;;;;;;;37.17;17.85;;;;;;;;;;5016991;28;20029;-87
2023/03/04 08:23:57;;;;;;;44.22;18.83;;;;;;;;;;5015078;28;20038;-82
2023/03/04 08:26:33;;;;;;;39.85;18.08;;;;;;;;;;5016924;28;20034;-86
2023/03/04 08:29:01;;;;;;;39.55;17.85;;;;;;;;;;5015392;28;20487;-86
2023/03/04 08:31:27;;;;;;;36.22;16.52;;;;;;;;;;5013272;28;20180;-88
2023/03/04 08:33:52;;;;;;;38.15;17.45;;;;;;;;;;5015703;28;20057;-88
2023/03/04 08:36:19;;;;;;;45.70;18.48;;;;;;;;;;5016430;28;20034;-87
2023/03/04 08:38:45;;;;;;;38.50;17.92;;;;;;;;;;5014672;28;20030;-87
2023/03/04 08:41:11;;;;;;;41.60;18.83;;;;;;;;;;5016732;28;20033;-86
2023/03/04 08:43:36;;;;;;;45.13;20.67;;;;;;;;;;5017369;28;20030;-86
2023/03/04 08:46:03;;;;;;;54.80;24.50;;;;;;;;;;5017740;28;20368;-86
2023/03/04 08:48:28;;;;;;;46.72;22.02;;;;;;;;;;5018029;28;20088;-86
2023/03/04 08:50:54;;;;;;;46.50;21.98;;;;;;;;;;5018693;28;20120;-86
2023/03/04 08:53:20;;;;;;;49.05;24.10;;;;;;;;;;5018952;28;20097;-86
2023/03/04 08:55:45;;;;;;;41.78;20.90;;;;;;;;;;5019616;28;20045;-86
2023/03/04 08:58:11;;;;;;;39.97;19.90;;;;;;;;;;5020227;28;20045;-85
2023/03/04 09:00:41;;;;;;;47.33;20.30;;;;;;;;;;5024430;28;20038;-86
2023/03/04 09:03:08;;;;;;;40.05;20.15;;;;;;;;;;5012731;28;20040;-87
2023/03/04 09:05:35;;;;;;;37.55;18.60;;;;;;;;;;5011451;28;20072;-86
2023/03/04 09:08:00;;;;;;;39.38;18.45;;;;;;;;;;5012597;28;20124;-87
2023/03/04 09:10:26;;;;;;;38.95;19.02;;;;;;;;;;5023779;28;20053;-86
2023/03/04 09:12:51;;;;;;;41.17;18.85;;;;;;;;;;5018626;28;20060;-85
2023/03/04 09:15:17;;;;;;;42.10;21.55;;;;;;;;;;5016179;28;20041;-86
2023/03/04 09:17:43;;;;;;;50.85;22.17;;;;;;;;;;5015232;28;20145;-87
2023/03/04 09:20:10;;;;;;;52.78;25.10;;;;;;;;;;5015676;28;20038;-87
2023/03/04 09:22:37;;;;;;;48.22;22.80;;;;;;;;;;5015318;28;20045;-86
2023/03/04 09:25:03;;;;;;;49.78;23.20;;;;;;;;;;5011788;28;20041;-85
2023/03/04 09:27:29;;;;;;;47.60;23.17;;;;;;;;;;5024376;28;20034;-87
2023/03/04 09:29:54;;;;;;;55.85;25.83;;;;;;;;;;5017679;28;20582;-87
2023/03/04 09:32:19;;;;;;;58.42;26.35;;;;;;;;;;5017127;28;20057;-84
2023/03/04 09:34:45;;;;;;;51.42;24.05;;;;;;;;;;5016434;28;20037;-88
2023/03/04 09:37:11;;;;;;;55.78;26.25;;;;;;;;;;5016022;28;20090;-87
2023/03/04 09:39:36;;;;;;;53.33;24.75;;;;;;;;;;5014870;28;20042;-87
2023/03/04 09:42:05;;;;;;;53.78;25.17;;;;;;;;;;5015218;28;20041;-85
2023/03/04 09:44:36;;;;;;;49.22;24.50;;;;;;;;;;5015931;28;20034;-88
2023/03/04 09:47:10;;;;;;;55.08;25.02;;;;;;;;;;5016109;28;20037;-87
2023/03/04 09:49:39;;;;;;;48.55;23.73;;;;;;;;;;5015592;28;20030;-87
2023/03/04 09:52:20;;;;;;;48.28;24.08;;;;;;;;;;5019329;28;20026;-88
2023/03/04 09:55:14;;;;;;;48.80;24.52;;;;;;;;;;5020504;28;20064;-87
2023/03/04 09:57:49;;;;;;;45.28;21.77;;;;;;;;;;5020432;28;20042;-87
2023/03/04 10:00:31;;;;;;;37.63;18.20;;;;;;;;;;5021554;28;20465;-87
2023/03/04 10:03:05;;;;;;;33.58;17.38;;;;;;;;;;5005295;28;20046;-84
2023/03/04 10:05:35;;;;;;;32.92;17.00;;;;;;;;;;5027176;28;20533;-87
2023/03/04 10:08:32;;;;;;;33.50;15.88;;;;;;;;;;5018545;28;20100;-86
2023/03/04 10:11:00;;;;;;;34.63;16.65;;;;;;;;;;5018405;28;20549;-88
2023/03/04 10:13:39;;;;;;;35.35;16.08;;;;;;;;;;5018187;28;20038;-88
2023/03/04 10:16:11;;;;;;;32.78;16.23;;;;;;;;;;5018499;28;20557;-87
2023/03/04 10:18:43;;;;;;;33.50;16.65;;;;;;;;;;5021512;28;20045;-88
2023/03/04 10:21:20;;;;;;;34.72;17.25;;;;;;;;;;5019083;28;20057;-87
2023/03/04 10:23:47;;;;;;;31.65;16.20;;;;;;;;;;5016006;28;20466;-87
2023/03/04 10:26:16;;;;;;;37.08;16.17;;;;;;;;;;5018447;28;20384;-86
2023/03/04 10:28:42;;;;;;;31.98;16.05;;;;;;;;;;5017387;28;20032;-86
2023/03/04 10:31:07;;;;;;;31.63;16.20;;;;;;;;;;5017725;28;20034;-85
2023/03/04 10:33:35;;;;;;;31.20;15.98;;;;;;;;;;5015189;28;20413;-87
2023/03/04 10:36:30;;;;;;;28.23;15.13;;;;;;;;;;5016491;28;20034;-87
2023/03/04 10:38:58;;;;;;;30.33;15.63;;;;;;;;;;4993369;28;20098;-85
2023/03/04 10:41:26;;;;;;;36.95;16.00;;;;;;;;;;5015693;28;20076;-85
2023/03/04 10:44:07;;;;;;;33.75;16.02;;;;;;;;;;5029182;28;20041;-87
2023/03/04 10:46:37;;;;;;;32.00;15.73;;;;;;;;;;5021271;28;20445;-87
2023/03/04 10:49:02;;;;;;;37.55;17.10;;;;;;;;;;5020176;28;20034;-87
2023/03/04 10:51:29;;;;;;;33.90;16.00;;;;;;;;;;5020209;28;20376;-85
2023/03/04 10:54:04;;;;;;;32.55;16.17;;;;;;;;;;5021759;28;20379;-85
2023/03/04 10:56:33;;;;;;;33.72;16.88;;;;;;;;;;5020280;28;20045;-87
2023/03/04 10:59:27;;;;;;;35.25;16.83;;;;;;;;;;5020127;28;20129;-87
2023/03/04 11:01:56;;;;;;;33.90;16.63;;;;;;;;;;5018214;28;20041;-87
2023/03/04 11:04:24;;;;;;;37.78;16.60;;;;;;;;;;5018569;28;20546;-87
2023/03/04 11:06:50;;;;;;;33.20;17.33;;;;;;;;;;5018737;28;20509;-86
2023/03/04 11:09:31;;;;;;;35.15;17.55;;;;;;;;;;5026551;28;20038;-87
2023/03/04 11:12:01;;;;;;;35.38;19.08;;;;;;;;;;5016775;28;20038;-86
2023/03/04 11:14:33;;;;;;;41.50;21.23;;;;;;;;;;5016190;28;20041;-87
2023/03/04 11:17:14;;;;;;;44.63;22.20;;;;;;;;;;5015849;28;20176;-88
2023/03/04 11:19:44;;;;;;;47.60;22.58;;;;;;;;;;5014141;28;20113;-86
2023/03/04 11:22:14;;;;;;;43.47;23.15;;;;;;;;;;5013897;28;20486;-85
2023/03/04 11:24:42;;;;;;;42.35;22.52;;;;;;;;;;5014338;28;20053;-86
2023/03/04 11:27:17;;;;;;;44.72;22.75;;;;;;;;;;5013974;28;20037;-85
2023/03/04 11:29:59;;;;;;;42.10;21.98;;;;;;;;;;5015219;28;20038;-86
2023/03/04 11:32:33;;;;;;;38.15;20.48;;;;;;;;;;5013761;28;20061;-88
2023/03/04 11:35:07;;;;;;;44.92;21.65;;;;;;;;;;5014720;28;20034;-87
2023/03/04 11:37:35;;;;;;;43.03;21.23;;;;;;;;;;5014466;28;20398;-87
2023/03/04 11:40:04;;;;;;;39.42;21.00;;;;;;;;;;5013489;28;20034;-85
2023/03/04 11:42:45;;;;;;;44.22;21.63;;;;;;;;;;5014729;28;20141;-84
2023/03/04 11:45:13;;;;;;;39.20;21.25;;;;;;;;;;5013111;28;20044;-86
2023/03/04 11:47:48;;;;;;;40.60;22.27;;;;;;;;;;5013929;28;20165;-86
2023/03/04 11:50:27;;;;;;;37.35;19.67;;;;;;;;;;5012728;28;20080;-86
2023/03/04 11:52:59;;;;;;;41.55;21.30;;;;;;;;;;5014009;28;20034;-86
2023/03/04 11:55:37;;;;;;;40.47;21.33;;;;;;;;;;5012324;28;20037;-85
2023/03/04 11:58:03;;;;;;;40.38;21.15;;;;;;;;;;5023719;28;20041;-86
2023/03/04 12:00:50;;;;;;;45.72;22.40;;;;;;;;;;5015872;28;20505;-88
2023/03/04 12:03:41;;;;;;;42.38;21.48;;;;;;;;;;5016260;28;20030;-85
2023/03/04 12:06:12;;;;;;;38.88;21.42;;;;;;;;;;5016846;28;20141;-85
2023/03/04 12:09:00;;;;;;;43.63;21.98;;;;;;;;;;5017607;28;20049;-87
2023/03/04 12:11:59;;;;;;;40.38;21.10;;;;;;;;;;5008847;28;20033;-86
2023/03/04 12:14:29;;;;;;;43.75;21.75;;;;;;;;;;5015978;28;20084;-87
2023/03/04 12:17:16;;;;;;;40.08;22.63;;;;;;;;;;5017822;28;20038;-87
2023/03/04 12:20:00;;;;;;;44.00;22.52;;;;;;;;;;5016279;28;20038;-86
2023/03/04 12:22:34;;;;;;;43.80;21.92;;;;;;;;;;5016222;28;20026;-87
2023/03/04 12:25:09;;;;;;;43.10;22.17;;;;;;;;;;5012860;28;20038;-86
2023/03/04 12:27:46;;;;;;;44.15;22.65;;;;;;;;;;5015116;28;20046;-86
2023/03/04 12:30:40;;;;;;;42.30;22.33;;;;;;;;;;5013275;28;20034;-87
2023/03/04 12:33:21;;;;;;;41.15;21.77;;;;;;;;;;5014177;28;20045;-86
2023/03/04 12:36:15;;;;;;;48.10;22.98;;;;;;;;;;5014437;28;20069;-87
2023/03/04 12:38:49;;;;;;;48.30;23.45;;;;;;;;;;5015585;28;20041;-86
2023/03/04 12:41:37;;;;;;;48.50;24.13;;;;;;;;;;5015450;28;20038;-87
2023/03/04 12:44:09;;;;;;;49.83;23.95;;;;;;;;;;5012887;28;20034;-86
2023/03/04 12:47:05;;;;;;;46.25;22.83;;;;;;;;;;5014230;28;20076;-86
2023/03/04 12:49:40;;;;;;;44.28;22.80;;;;;;;;;;5012721;28;20025;-86
2023/03/04 12:52:08;;;;;;;43.10;22.95;;;;;;;;;;5012108;28;20045;-87
2023/03/04 12:54:39;;;;;;;39.75;22.23;;;;;;;;;;5018422;28;20446;-87
2023/03/04 12:57:16;;;;;;;45.13;23.02;;;;;;;;;;5017219;28;20037;-87
2023/03/04 13:00:04;;;;;;;39.88;22.80;;;;;;;;;;5017899;28;20038;-88
2023/03/04 13:02:38;;;;;;;43.10;22.48;;;;;;;;;;5046970;23;20605;-83
2023/03/04 13:05:27;;;;;;;41.72;22.52;;;;;;;;;;5037287;28;20061;-81
2023/03/04 13:08:11;;;;;;;45.83;22.90;;;;;;;;;;5036955;28;20057;-81
2023/03/04 13:10:36;;;;;;;47.78;23.10;;;;;;;;;;5038032;28;20035;-81
2023/03/04 13:13:02;;;;;;;46.90;22.88;;;;;;;;;;5038209;28;20092;-81
2023/03/04 13:15:36;;;;;;;43.17;22.73;;;;;;;;;;5040387;28;20544;-81
2023/03/04 13:18:03;;;;;;;40.25;22.05;;;;;;;;;;5037734;28;20049;-82
2023/03/04 13:20:29;;;;;;;42.10;22.58;;;;;;;;;;5037980;28;20037;-82
2023/03/04 13:23:21;;;;;;;42.03;22.65;;;;;;;;;;5035474;28;20033;-81
2023/03/04 13:25:49;;;;;;;40.95;22.50;;;;;;;;;;5036527;28;20410;-81
2023/03/04 13:28:24;;;;;;;44.15;23.17;;;;;;;;;;5038140;28;20093;-81
2023/03/04 13:30:54;;;;;;;43.08;22.83;;;;;;;;;;5037554;28;20397;-81
2023/03/04 13:33:19;;;;;;;42.75;23.17;;;;;;;;;;5036443;28;20045;-82
2023/03/04 13:35:48;;;;;;;42.13;22.52;;;;;;;;;;5019693;28;20036;-81
2023/03/04 13:38:19;;;;;;;42.38;21.45;;;;;;;;;;5038804;28;20169;-81
2023/03/04 13:41:21;;;;;;;39.55;21.70;;;;;;;;;;5037591;28;20035;-81
2023/03/04 13:43:46;;;;;;;37.15;20.92;;;;;;;;;;5038349;28;20476;-82
2023/03/04 13:46:18;;;;;;;41.30;20.65;;;;;;;;;;5039379;28;20068;-81
2023/03/04 13:48:49;;;;;;;41.08;20.65;;;;;;;;;;5038414;28;20076;-81
2023/03/04 13:51:22;;;;;;;35.30;19.73;;;;;;;;;;5038576;28;20087;-81
2023/03/04 13:54:01;;;;;;;42.85;19.98;;;;;;;;;;5039000;28;20063;-81
2023/03/04 13:56:35;;;;;;;35.97;19.63;;;;;;;;;;5037961;28;20052;-81
2023/03/04 13:59:06;;;;;;;35.90;18.75;;;;;;;;;;5037938;28;20040;-80
2023/03/04 14:02:05;;;;;;;37.13;19.20;;;;;;;;;;5039081;28;20061;-81
2023/03/04 14:04:34;;;;;;;36.35;18.77;;;;;;;;;;5039613;28;20367;-80
2023/03/04 14:07:03;;;;;;;33.70;18.52;;;;;;;;;;5039074;28;20033;-81
2023/03/04 14:09:32;;;;;;;37.53;19.88;;;;;;;;;;5039520;28;20030;-81
2023/03/04 14:12:04;;;;;;;34.05;19.27;;;;;;;;;;5039484;28;20111;-81
2023/03/04 14:14:41;;;;;;;35.58;19.10;;;;;;;;;;5039883;28;20034;-81
2023/03/04 14:17:18;;;;;;;32.92;18.77;;;;;;;;;;5037605;28;20087;-80
2023/03/04 14:19:45;;;;;;;37.92;19.33;;;;;;;;;;5038738;28;20030;-81
2023/03/04 14:22:25;;;;;;;33.38;18.63;;;;;;;;;;5038250;28;20040;-80
2023/03/04 14:25:17;;;;;;;35.42;17.75;;;;;;;;;;5018960;28;20102;-81
2023/03/04 14:27:44;;;;;;;33.78;17.63;;;;;;;;;;5035120;28;20061;-81